sensor_id;sensor_type;location;lat;lon;timestamp;temperature;humidity
26049;DHT22;13822;51.568;5.086;2023-08-20T00:01:02;20.90;99.90
26049;DHT22;13822;51.568;5.086;2023-08-20T00:06:27;20.90;99.90
26049;DHT22;13822;51.568;5.086;2023-08-20T00:12:13;20.80;99.90
26049;DHT22;13822;51.568;5.086;2023-08-20T00:17:52;20.80;99.90
26049;DHT22;13822;51.568;5.086;2023-08-20T00:23:35;20.70;99.90
26049;DHT22;13822;51.568;5.086;2023-08-20T00:29:20;20.70;99.90
26049;DHT22;13822;51.568;5.086;2023-08-20T00:40:18;20.60;99.90
26049;DHT22;13822;51.568;5.086;2023-08-20T01:03:53;20.50;99.90
26049;DHT22;13822;51.568;5.086;2023-08-20T01:15:27;20.50;99.90
26049;DHT22;13822;51.568;5.086;2023-08-20T01:32:50;20.40;99.90
26049;DHT22;13822;51.568;5.086;2023-08-20T01:44:22;20.30;99.90
26049;DHT22;13822;51.568;5.086;2023-08-20T01:50:02;20.30;99.90
26049;DHT22;13822;51.568;5.086;2023-08-20T01:55:33;20.30;99.90
26049;DHT22;13822;51.568;5.086;2023-08-20T02:02:00;20.30;99.90
26049;DHT22;13822;51.568;5.086;2023-08-20T02:07:38;20.30;99.90
26049;DHT22;13822;51.568;5.086;2023-08-20T02:13:27;20.40;99.90
26049;DHT22;13822;51.568;5.086;2023-08-20T02:24:41;20.30;99.90
26049;DHT22;13822;51.568;5.086;2023-08-20T02:36:03;20.20;99.90
26049;DHT22;13822;51.568;5.086;2023-08-20T02:41:34;20.20;99.90
26049;DHT22;13822;51.568;5.086;2023-08-20T03:05:30;20.10;99.90
26049;DHT22;13822;51.568;5.086;2023-08-20T03:11:31;20.00;99.90
26049;DHT22;13822;51.568;5.086;2023-08-20T03:17:17;20.00;99.90
26049;DHT22;13822;51.568;5.086;2023-08-20T03:23:14;19.80;99.90
26049;DHT22;13822;51.568;5.086;2023-08-20T03:29:11;19.70;99.90
26049;DHT22;13822;51.568;5.086;2023-08-20T03:34:42;19.60;99.90
26049;DHT22;13822;51.568;5.086;2023-08-20T03:40:23;19.50;99.90
26049;DHT22;13822;51.568;5.086;2023-08-20T03:51:54;19.30;99.90
26049;DHT22;13822;51.568;5.086;2023-08-20T03:57:47;19.20;99.90
26049;DHT22;13822;51.568;5.086;2023-08-20T04:03:09;19.30;99.90
26049;DHT22;13822;51.568;5.086;2023-08-20T04:08:52;19.30;99.90
26049;DHT22;13822;51.568;5.086;2023-08-20T04:14:37;19.30;99.90
26049;DHT22;13822;51.568;5.086;2023-08-20T04:20:15;19.30;99.90
26049;DHT22;13822;51.568;5.086;2023-08-20T04:25:43;19.30;99.90
26049;DHT22;13822;51.568;5.086;2023-08-20T04:31:33;19.20;99.90
26049;DHT22;13822;51.568;5.086;2023-08-20T04:43:35;19.20;99.90
26049;DHT22;13822;51.568;5.086;2023-08-20T04:49:28;19.20;99.90
26049;DHT22;13822;51.568;5.086;2023-08-20T04:55:03;19.20;99.90
26049;DHT22;13822;51.568;5.086;2023-08-20T05:00:45;19.20;99.90
26049;DHT22;13822;51.568;5.086;2023-08-20T05:12:43;19.20;99.90
26049;DHT22;13822;51.568;5.086;2023-08-20T05:24:15;19.20;99.90
26049;DHT22;13822;51.568;5.086;2023-08-20T05:41:47;19.30;99.90
26049;DHT22;13822;51.568;5.086;2023-08-20T05:47:37;19.30;99.90
26049;DHT22;13822;51.568;5.086;2023-08-20T05:52:40;19.30;99.90
26049;DHT22;13822;51.568;5.086;2023-08-20T05:57:42;19.30;99.90
26049;DHT22;13822;51.568;5.086;2023-08-20T06:02:46;19.30;99.90
26049;DHT22;13822;51.568;5.086;2023-08-20T06:07:48;19.30;99.90
26049;DHT22;13822;51.568;5.086;2023-08-20T06:12:50;19.20;99.90
26049;DHT22;13822;51.568;5.086;2023-08-20T06:17:52;19.20;99.90
26049;DHT22;13822;51.568;5.086;2023-08-20T06:22:53;19.30;99.90
26049;DHT22;13822;51.568;5.086;2023-08-20T06:27:55;19.30;99.90
26049;DHT22;13822;51.568;5.086;2023-08-20T06:32:57;19.30;99.90
26049;DHT22;13822;51.568;5.086;2023-08-20T06:37:59;19.30;99.90
26049;DHT22;13822;51.568;5.086;2023-08-20T06:43:01;19.40;99.90
26049;DHT22;13822;51.568;5.086;2023-08-20T06:48:03;19.50;99.90
26049;DHT22;13822;51.568;5.086;2023-08-20T06:53:06;19.50;99.90
26049;DHT22;13822;51.568;5.086;2023-08-20T06:58:07;19.60;99.90
26049;DHT22;13822;51.568;5.086;2023-08-20T07:03:09;19.70;99.90
26049;DHT22;13822;51.568;5.086;2023-08-20T07:08:11;19.80;99.90
26049;DHT22;13822;51.568;5.086;2023-08-20T07:13:13;19.80;99.90
26049;DHT22;13822;51.568;5.086;2023-08-20T07:18:15;19.90;99.90
26049;DHT22;13822;51.568;5.086;2023-08-20T07:23:17;20.00;99.90
26049;DHT22;13822;51.568;5.086;2023-08-20T07:28:19;20.00;99.90
26049;DHT22;13822;51.568;5.086;2023-08-20T07:33:41;20.20;99.90
26049;DHT22;13822;51.568;5.086;2023-08-20T07:38:48;20.30;99.90
26049;DHT22;13822;51.568;5.086;2023-08-20T07:43:50;20.40;99.90
26049;DHT22;13822;51.568;5.086;2023-08-20T07:48:52;20.50;99.90
26049;DHT22;13822;51.568;5.086;2023-08-20T07:53:54;20.60;99.90
26049;DHT22;13822;51.568;5.086;2023-08-20T07:58:56;20.80;99.90
26049;DHT22;13822;51.568;5.086;2023-08-20T08:03:58;20.90;99.90
26049;DHT22;13822;51.568;5.086;2023-08-20T08:09:14;21.10;99.90
26049;DHT22;13822;51.568;5.086;2023-08-20T08:14:36;21.30;99.90
26049;DHT22;13822;51.568;5.086;2023-08-20T08:19:38;21.50;99.90
26049;DHT22;13822;51.568;5.086;2023-08-20T08:24:40;21.70;99.90
26049;DHT22;13822;51.568;5.086;2023-08-20T08:29:44;21.90;99.90
26049;DHT22;13822;51.568;5.086;2023-08-20T08:34:46;22.10;99.90
26049;DHT22;13822;51.568;5.086;2023-08-20T08:39:48;22.30;99.90
26049;DHT22;13822;51.568;5.086;2023-08-20T08:44:50;22.50;99.90
26049;DHT22;13822;51.568;5.086;2023-08-20T08:49:53;22.60;99.90
26049;DHT22;13822;51.568;5.086;2023-08-20T08:54:56;22.80;99.90
26049;DHT22;13822;51.568;5.086;2023-08-20T08:59:58;23.00;99.90
26049;DHT22;13822;51.568;5.086;2023-08-20T09:05:00;23.10;99.90
26049;DHT22;13822;51.568;5.086;2023-08-20T09:10:02;23.30;99.90
26049;DHT22;13822;51.568;5.086;2023-08-20T09:15:09;23.50;99.90
26049;DHT22;13822;51.568;5.086;2023-08-20T09:20:11;23.70;99.90
26049;DHT22;13822;51.568;5.086;2023-08-20T09:25:15;23.90;99.90
26049;DHT22;13822;51.568;5.086;2023-08-20T09:30:18;24.10;99.90
26049;DHT22;13822;51.568;5.086;2023-08-20T09:35:22;24.20;99.90
26049;DHT22;13822;51.568;5.086;2023-08-20T09:40:24;24.40;99.90
26049;DHT22;13822;51.568;5.086;2023-08-20T09:45:28;24.60;99.90
26049;DHT22;13822;51.568;5.086;2023-08-20T09:50:30;24.70;99.90
26049;DHT22;13822;51.568;5.086;2023-08-20T09:55:38;24.80;99.90
26049;DHT22;13822;51.568;5.086;2023-08-20T10:00:41;24.90;99.90
26049;DHT22;13822;51.568;5.086;2023-08-20T10:05:43;25.20;99.90
26049;DHT22;13822;51.568;5.086;2023-08-20T10:10:47;25.40;99.90
26049;DHT22;13822;51.568;5.086;2023-08-20T10:15:49;25.60;97.80
26049;DHT22;13822;51.568;5.086;2023-08-20T10:20:52;25.80;94.30
26049;DHT22;13822;51.568;5.086;2023-08-20T10:25:54;25.90;93.90
26049;DHT22;13822;51.568;5.086;2023-08-20T10:31:09;26.10;95.10
26049;DHT22;13822;51.568;5.086;2023-08-20T10:36:14;26.40;90.20
26049;DHT22;13822;51.568;5.086;2023-08-20T10:41:17;26.70;91.40
26049;DHT22;13822;51.568;5.086;2023-08-20T10:46:29;27.00;90.20
26049;DHT22;13822;51.568;5.086;2023-08-20T10:51:39;27.40;90.40
26049;DHT22;13822;51.568;5.086;2023-08-20T11:01:49;28.40;78.40
26049;DHT22;13822;51.568;5.086;2023-08-20T11:06:58;28.90;87.20
26049;DHT22;13822;51.568;5.086;2023-08-20T11:12:00;28.90;76.40
26049;DHT22;13822;51.568;5.086;2023-08-20T11:17:02;29.20;64.70
26049;DHT22;13822;51.568;5.086;2023-08-20T11:22:05;29.60;72.40
26049;DHT22;13822;51.568;5.086;2023-08-20T11:27:07;29.60;63.40
26049;DHT22;13822;51.568;5.086;2023-08-20T11:32:09;29.80;62.60
26049;DHT22;13822;51.568;5.086;2023-08-20T11:37:12;30.10;61.70
26049;DHT22;13822;51.568;5.086;2023-08-20T11:42:14;30.50;64.40
26049;DHT22;13822;51.568;5.086;2023-08-20T11:47:16;30.10;61.30
26049;DHT22;13822;51.568;5.086;2023-08-20T11:52:19;30.10;61.30
26049;DHT22;13822;51.568;5.086;2023-08-20T11:57:22;30.50;56.60
26049;DHT22;13822;51.568;5.086;2023-08-20T12:02:25;30.90;62.20
26049;DHT22;13822;51.568;5.086;2023-08-20T12:07:41;31.20;59.20
26049;DHT22;13822;51.568;5.086;2023-08-20T12:12:43;31.90;52.20
26049;DHT22;13822;51.568;5.086;2023-08-20T12:17:58;31.90;53.40
26049;DHT22;13822;51.568;5.086;2023-08-20T12:23:02;32.30;51.00
26049;DHT22;13822;51.568;5.086;2023-08-20T12:28:05;32.50;48.50
26049;DHT22;13822;51.568;5.086;2023-08-20T12:33:07;32.80;47.90
26049;DHT22;13822;51.568;5.086;2023-08-20T12:38:09;33.30;46.40
26049;DHT22;13822;51.568;5.086;2023-08-20T12:43:11;33.80;49.20
26049;DHT22;13822;51.568;5.086;2023-08-20T12:48:13;34.20;44.10
26049;DHT22;13822;51.568;5.086;2023-08-20T12:53:15;34.50;40.90
26049;DHT22;13822;51.568;5.086;2023-08-20T12:58:17;34.20;41.30
26049;DHT22;13822;51.568;5.086;2023-08-20T13:03:19;34.10;41.50
26049;DHT22;13822;51.568;5.086;2023-08-20T13:08:21;34.10;42.10
26049;DHT22;13822;51.568;5.086;2023-08-20T13:13:24;34.20;39.10
26049;DHT22;13822;51.568;5.086;2023-08-20T13:18:26;34.30;43.60
26049;DHT22;13822;51.568;5.086;2023-08-20T13:23:29;34.10;40.00
26049;DHT22;13822;51.568;5.086;2023-08-20T13:28:31;34.30;40.90
26049;DHT22;13822;51.568;5.086;2023-08-20T13:33:33;34.10;38.90
26049;DHT22;13822;51.568;5.086;2023-08-20T13:38:35;34.60;40.60
26049;DHT22;13822;51.568;5.086;2023-08-20T13:43:37;35.00;36.90
26049;DHT22;13822;51.568;5.086;2023-08-20T13:48:39;35.00;37.20
26049;DHT22;13822;51.568;5.086;2023-08-20T13:53:41;35.00;35.40
26049;DHT22;13822;51.568;5.086;2023-08-20T13:58:43;35.00;37.50
26049;DHT22;13822;51.568;5.086;2023-08-20T14:03:45;35.00;35.00
26049;DHT22;13822;51.568;5.086;2023-08-20T14:08:47;35.10;37.50
26049;DHT22;13822;51.568;5.086;2023-08-20T14:13:50;35.60;35.90
26049;DHT22;13822;51.568;5.086;2023-08-20T14:18:51;35.50;35.90
26049;DHT22;13822;51.568;5.086;2023-08-20T14:23:53;34.70;35.80
26049;DHT22;13822;51.568;5.086;2023-08-20T14:28:55;33.90;36.40
26049;DHT22;13822;51.568;5.086;2023-08-20T14:33:57;33.20;38.00
26049;DHT22;13822;51.568;5.086;2023-08-20T14:38:59;32.40;39.70
26049;DHT22;13822;51.568;5.086;2023-08-20T14:44:02;31.50;42.30
26049;DHT22;13822;51.568;5.086;2023-08-20T14:49:04;30.90;42.70
26049;DHT22;13822;51.568;5.086;2023-08-20T14:54:06;30.60;43.20
26049;DHT22;13822;51.568;5.086;2023-08-20T14:59:08;30.30;44.50
26049;DHT22;13822;51.568;5.086;2023-08-20T15:04:11;30.10;45.50
26049;DHT22;13822;51.568;5.086;2023-08-20T15:09:13;29.70;46.00
26049;DHT22;13822;51.568;5.086;2023-08-20T15:14:17;29.40;47.10
26049;DHT22;13822;51.568;5.086;2023-08-20T15:19:18;29.40;49.00
26049;DHT22;13822;51.568;5.086;2023-08-20T15:24:21;29.70;48.50
26049;DHT22;13822;51.568;5.086;2023-08-20T15:29:22;30.00;48.70
26049;DHT22;13822;51.568;5.086;2023-08-20T15:34:24;30.50;48.50
26049;DHT22;13822;51.568;5.086;2023-08-20T15:39:26;30.90;48.40
26049;DHT22;13822;51.568;5.086;2023-08-20T15:44:28;31.20;46.50
26049;DHT22;13822;51.568;5.086;2023-08-20T15:49:30;31.10;46.90
26049;DHT22;13822;51.568;5.086;2023-08-20T15:54:32;31.20;45.70
26049;DHT22;13822;51.568;5.086;2023-08-20T15:59:38;31.20;47.10
26049;DHT22;13822;51.568;5.086;2023-08-20T16:04:40;31.20;45.80
26049;DHT22;13822;51.568;5.086;2023-08-20T16:09:42;31.00;47.10
26049;DHT22;13822;51.568;5.086;2023-08-20T16:14:44;31.00;45.30
26049;DHT22;13822;51.568;5.086;2023-08-20T16:19:46;30.80;45.20
26049;DHT22;13822;51.568;5.086;2023-08-20T16:24:48;30.70;45.60
26049;DHT22;13822;51.568;5.086;2023-08-20T16:29:50;30.20;45.80
26049;DHT22;13822;51.568;5.086;2023-08-20T16:34:52;30.00;47.40
26049;DHT22;13822;51.568;5.086;2023-08-20T16:39:54;29.70;47.60
26049;DHT22;13822;51.568;5.086;2023-08-20T16:44:58;29.40;48.60
26049;DHT22;13822;51.568;5.086;2023-08-20T16:50:00;29.10;48.60
26049;DHT22;13822;51.568;5.086;2023-08-20T16:55:02;28.60;49.40
26049;DHT22;13822;51.568;5.086;2023-08-20T17:00:05;28.30;50.70
26049;DHT22;13822;51.568;5.086;2023-08-20T17:05:08;28.30;51.70
26049;DHT22;13822;51.568;5.086;2023-08-20T17:10:10;28.20;51.90
26049;DHT22;13822;51.568;5.086;2023-08-20T17:15:12;28.00;54.20
26049;DHT22;13822;51.568;5.086;2023-08-20T17:20:15;27.40;56.00
26049;DHT22;13822;51.568;5.086;2023-08-20T17:25:17;27.10;57.40
26049;DHT22;13822;51.568;5.086;2023-08-20T17:30:21;26.90;58.80
26049;DHT22;13822;51.568;5.086;2023-08-20T17:35:23;26.60;60.20
26049;DHT22;13822;51.568;5.086;2023-08-20T17:40:25;26.50;61.90
26049;DHT22;13822;51.568;5.086;2023-08-20T17:45:27;26.30;63.60
26049;DHT22;13822;51.568;5.086;2023-08-20T17:50:29;26.20;64.20
26049;DHT22;13822;51.568;5.086;2023-08-20T17:55:32;26.00;64.70
26049;DHT22;13822;51.568;5.086;2023-08-20T18:00:34;26.00;66.30
26049;DHT22;13822;51.568;5.086;2023-08-20T18:05:37;26.00;66.70
26049;DHT22;13822;51.568;5.086;2023-08-20T18:10:39;25.90;67.70
26049;DHT22;13822;51.568;5.086;2023-08-20T18:15:41;25.70;68.70
26049;DHT22;13822;51.568;5.086;2023-08-20T18:20:43;25.60;70.00
26049;DHT22;13822;51.568;5.086;2023-08-20T18:25:45;25.60;70.90
26049;DHT22;13822;51.568;5.086;2023-08-20T18:30:53;25.60;73.10
26049;DHT22;13822;51.568;5.086;2023-08-20T18:35:56;25.30;74.10
26049;DHT22;13822;51.568;5.086;2023-08-20T18:41:00;25.20;76.00
26049;DHT22;13822;51.568;5.086;2023-08-20T18:46:03;25.00;77.50
26049;DHT22;13822;51.568;5.086;2023-08-20T18:51:05;24.80;79.70
26049;DHT22;13822;51.568;5.086;2023-08-20T18:56:08;24.70;83.70
26049;DHT22;13822;51.568;5.086;2023-08-20T19:01:10;24.50;86.50
26049;DHT22;13822;51.568;5.086;2023-08-20T19:06:12;24.30;89.70
26049;DHT22;13822;51.568;5.086;2023-08-20T19:11:14;24.00;90.80
26049;DHT22;13822;51.568;5.086;2023-08-20T19:16:16;23.90;92.20
26049;DHT22;13822;51.568;5.086;2023-08-20T19:21:18;23.80;93.20
26049;DHT22;13822;51.568;5.086;2023-08-20T19:26:20;23.80;94.30
26049;DHT22;13822;51.568;5.086;2023-08-20T19:31:22;23.70;95.20
26049;DHT22;13822;51.568;5.086;2023-08-20T19:36:24;23.70;95.10
26049;DHT22;13822;51.568;5.086;2023-08-20T19:54:56;23.60;95.50
26049;DHT22;13822;51.568;5.086;2023-08-20T20:19:46;23.00;98.40
26049;DHT22;13822;51.568;5.086;2023-08-20T20:38:04;22.90;99.90
26049;DHT22;13822;51.568;5.086;2023-08-20T20:49:42;22.80;99.90
26049;DHT22;13822;51.568;5.086;2023-08-20T21:01:07;22.60;99.90
26049;DHT22;13822;51.568;5.086;2023-08-20T21:06:32;22.40;99.90
26049;DHT22;13822;51.568;5.086;2023-08-20T21:18:13;22.20;99.90
26049;DHT22;13822;51.568;5.086;2023-08-20T21:23:55;22.10;99.90
26049;DHT22;13822;51.568;5.086;2023-08-20T21:29:16;22.00;99.90
26049;DHT22;13822;51.568;5.086;2023-08-20T21:34:56;22.00;99.90
26049;DHT22;13822;51.568;5.086;2023-08-20T21:51:45;21.90;99.90
26049;DHT22;13822;51.568;5.086;2023-08-20T21:57:29;21.80;99.90
26049;DHT22;13822;51.568;5.086;2023-08-20T22:02:56;21.80;99.90
26049;DHT22;13822;51.568;5.086;2023-08-20T22:08:16;21.80;99.90
26049;DHT22;13822;51.568;5.086;2023-08-20T22:19:24;21.70;99.90
26049;DHT22;13822;51.568;5.086;2023-08-20T22:24:55;21.60;99.90
26049;DHT22;13822;51.568;5.086;2023-08-20T22:30:34;21.60;99.90
26049;DHT22;13822;51.568;5.086;2023-08-20T22:36:19;21.50;99.90
26049;DHT22;13822;51.568;5.086;2023-08-20T22:42:07;21.40;99.90
26049;DHT22;13822;51.568;5.086;2023-08-20T22:47:51;21.40;99.90
26049;DHT22;13822;51.568;5.086;2023-08-20T22:59:27;21.40;99.90
26049;DHT22;13822;51.568;5.086;2023-08-20T23:23:25;21.10;99.90
26049;DHT22;13822;51.568;5.086;2023-08-20T23:35:33;21.10;99.90
26049;DHT22;13822;51.568;5.086;2023-08-20T23:41:24;21.10;99.90
26049;DHT22;13822;51.568;5.086;2023-08-20T23:46:43;21.10;99.90
26049;DHT22;13822;51.568;5.086;2023-08-20T23:52:58;21.20;99.90
26049;DHT22;13822;51.568;5.086;2023-08-20T23:58:33;21.30;99.90
